Time;durP1;ratioP1;P1;durP2;ratioP2;P2;SDS_P1;SDS_P2;PMS_P1;PMS_P2;Temp;Humidity;BMP_temperature;BMP_pressure;BME280_temperature;BME280_humidity;BME280_pressure;Samples;Min_cycle;Max_cycle;Signal;HPM_P1;HPM_P2
2022/07/24 00:00:56;;;;;;;;;;;;;;;27.31;43.37;99963.59;2073307;28;19921;-64
2022/07/24 00:01:56;;;;;;;;;;;;;;;27.30;43.47;99959.13;2074063;28;19917;-64
2022/07/24 00:02:56;;;;;;;;;;;;;;;27.31;43.17;99963.59;2065079;28;19906;-64
2022/07/24 00:03:57;;;;;;;;;;;;;;;27.30;43.41;99959.13;2073114;28;19917;-64
2022/07/24 00:04:58;;;;;;;;;;;;;;;27.30;43.14;99958.28;2070861;28;19924;-64
2022/07/24 00:05:58;;;;;;;;;;;;;;;27.31;43.50;99955.28;2070703;28;19909;-64
2022/07/24 00:06:58;;;;;;;;;;;;;;;27.30;43.26;99959.13;2070607;28;19909;-64
2022/07/24 00:07:59;;;;;;;;;;;;;;;27.29;43.51;99951.91;2068108;28;19921;-64
2022/07/24 00:08:59;;;;;;;;;;;;;;;27.30;43.53;99952.75;2073768;28;19905;-64
2022/07/24 00:09:59;;;;;;;;;;;;;;;27.30;43.48;99948.06;2073472;28;20055;-64
2022/07/24 00:11:00;;;;;;;;;;;;;;;27.29;43.27;99946.34;2070225;28;19917;-64
2022/07/24 00:12:00;;;;;;;;;;;;;;;27.30;43.54;99947.22;2068718;28;19948;-64
2022/07/24 00:13:00;;;;;;;;;;;;;;;27.29;43.60;99946.34;2070997;28;20049;-64
2022/07/24 00:14:00;;;;;;;;;;;;;;;27.30;43.53;99947.22;2073944;28;19913;-64
2022/07/24 00:15:01;;;;;;;;;;;;;;;27.29;43.41;99946.34;2067036;28;19996;-64
2022/07/24 00:16:01;;;;;;;;;;;;;;;27.30;43.40;99953.59;2069507;28;20385;-64
2022/07/24 00:17:02;;;;;;;;;;;;;;;27.29;43.42;99949.13;2072367;28;19917;-64
2022/07/24 00:18:02;;;;;;;;;;;;;;;27.29;43.63;99943.59;2072765;28;19917;-64
2022/07/24 00:19:02;;;;;;;;;;;;;;;27.28;43.60;99939.09;2063893;28;20471;-64
2022/07/24 00:20:04;;;;;;;;;;;;;;;27.29;43.60;99945.47;2072826;28;20396;-64
2022/07/24 00:21:05;;;;;;;;;;;;;;;27.29;43.37;99946.34;2068051;28;20802;-64
2022/07/24 00:22:05;;;;;;;;;;;;;;;27.29;43.47;99943.59;2068157;28;20465;-64
2022/07/24 00:23:05;;;;;;;;;;;;;;;27.29;43.47;99945.47;2072352;28;20009;-64
2022/07/24 00:24:06;;;;;;;;;;;;;;;27.27;43.41;99940.19;2065823;28;19917;-64
2022/07/24 00:25:06;;;;;;;;;;;;;;;27.28;43.44;99944.63;2070917;28;20330;-64
2022/07/24 00:26:06;;;;;;;;;;;;;;;27.28;43.26;99947.41;2071544;28;19917;-64
2022/07/24 00:27:07;;;;;;;;;;;;;;;27.28;43.37;99939.09;2066631;28;19920;-64
2022/07/24 00:28:07;;;;;;;;;;;;;;;27.28;43.59;99939.09;2068456;28;19925;-64
2022/07/24 00:29:07;;;;;;;;;;;;;;;27.26;43.56;99935.69;2068517;28;19917;-64
2022/07/24 00:30:08;;;;;;;;;;;;;;;27.29;43.44;99942.72;2070492;28;19917;-64
2022/07/24 00:31:08;;;;;;;;;;;;;;;27.27;43.57;99933.78;2069265;28;20749;-64
2022/07/24 00:32:09;;;;;;;;;;;;;;;27.28;43.46;99939.09;2070698;28;19924;-64
2022/07/24 00:33:09;;;;;;;;;;;;;;;27.28;43.59;99938.25;2067514;28;19920;-64
2022/07/24 00:34:09;;;;;;;;;;;;;;;27.28;43.40;99935.50;2070214;28;19948;-64
2022/07/24 00:35:12;;;;;;;;;;;;;;;27.27;43.50;99926.34;2067748;28;19917;-64
2022/07/24 00:36:12;;;;;;;;;;;;;;;27.28;43.46;99933.56;2069309;28;19917;-64
2022/07/24 00:37:13;;;;;;;;;;;;;;;27.28;43.60;99930.78;2068970;28;20000;-64
2022/07/24 00:38:13;;;;;;;;;;;;;;;27.28;43.66;99928.03;2072499;28;20402;-64
2022/07/24 00:39:14;;;;;;;;;;;;;;;27.27;43.68;99937.41;2071951;28;20350;-64
2022/07/24 00:40:15;;;;;;;;;;;;;;;27.27;43.57;99931.88;2063850;28;19921;-64
2022/07/24 00:41:16;;;;;;;;;;;;;;;27.27;43.68;99926.34;2064913;28;19943;-64
2022/07/24 00:42:16;;;;;;;;;;;;;;;27.27;43.70;99929.09;2070197;28;19924;-64
2022/07/24 00:43:16;;;;;;;;;;;;;;;27.27;43.47;99926.34;2070626;28;19928;-64
2022/07/24 00:44:17;;;;;;;;;;;;;;;27.27;43.55;99931.88;2068453;28;19980;-64
2022/07/24 00:45:17;;;;;;;;;;;;;;;27.27;43.53;99926.34;2070542;28;19928;-64
2022/07/24 00:46:18;;;;;;;;;;;;;;;27.27;43.53;99926.34;2071808;28;19909;-64
2022/07/24 00:47:18;;;;;;;;;;;;;;;27.27;43.63;99925.50;2068437;28;21325;-65
2022/07/24 00:48:19;;;;;;;;;;;;;;;27.27;43.52;99926.34;2069488;28;20155;-64
2022/07/24 00:49:19;;;;;;;;;;;;;;;27.26;43.50;99924.63;2070651;28;19953;-64
2022/07/24 00:50:20;;;;;;;;;;;;;;;27.27;43.62;99926.34;2069256;28;20415;-64
2022/07/24 00:51:20;;;;;;;;;;;;;;;27.26;43.55;99921.84;2070773;28;19921;-64
2022/07/24 00:52:20;;;;;;;;;;;;;;;27.27;43.32;99922.72;2069347;28;19916;-64
2022/07/24 00:53:20;;;;;;;;;;;;;;;27.25;43.43;99914.63;2069288;28;19917;-64
2022/07/24 00:54:22;;;;;;;;;;;;;;;27.27;43.33;99923.56;2076687;28;19917;-64
2022/07/24 00:55:22;;;;;;;;;;;;;;;27.27;43.62;99926.34;2069808;28;19918;-64
2022/07/24 00:56:23;;;;;;;;;;;;;;;27.25;43.42;99920.16;2077267;28;19948;-64
2022/07/24 00:57:23;;;;;;;;;;;;;;;27.26;43.47;99923.75;2074450;28;19921;-64
2022/07/24 00:58:23;;;;;;;;;;;;;;;27.25;43.59;99928.47;2071634;28;19921;-64
2022/07/24 00:59:24;;;;;;;;;;;;;;;27.25;43.61;99920.16;2062292;28;19925;-64
2022/07/24 01:00:24;;;;;;;;;;;;;;;27.25;43.44;99919.31;2073712;28;19996;-64
2022/07/24 01:01:24;;;;;;;;;;;;;;;27.25;43.50;99925.69;2069635;28;19921;-64
2022/07/24 01:02:25;;;;;;;;;;;;;;;27.25;43.35;99927.59;2069702;28;20422;-64
2022/07/24 01:03:25;;;;;;;;;;;;;;;27.24;43.61;99918.47;2068450;28;20003;-64
2022/07/24 01:04:25;;;;;;;;;;;;;;;27.26;43.69;99923.75;2069139;28;19917;-64
2022/07/24 01:05:26;;;;;;;;;;;;;;;27.26;43.38;99918.22;2070266;28;19920;-64
2022/07/24 01:06:26;;;;;;;;;;;;;;;27.25;43.65;99917.38;2070635;28;19940;-64
2022/07/24 01:07:26;;;;;;;;;;;;;;;27.24;43.71;99920.34;2070145;28;20283;-64
2022/07/24 01:08:27;;;;;;;;;;;;;;;27.23;43.72;99919.50;2069479;28;19960;-64
2022/07/24 01:09:27;;;;;;;;;;;;;;;27.24;43.54;99915.69;2070608;28;19913;-64
2022/07/24 01:10:27;;;;;;;;;;;;;;;27.25;43.62;99917.38;2062700;28;19917;-64
2022/07/24 01:11:28;;;;;;;;;;;;;;;27.25;43.58;99917.38;2067488;28;19921;-64
2022/07/24 01:12:30;;;;;;;;;;;;;;;27.25;43.67;99919.31;2072104;28;19913;-64
2022/07/24 01:13:31;;;;;;;;;;;;;;;27.25;43.46;99922.06;2069227;28;19917;-64
2022/07/24 01:14:32;;;;;;;;;;;;;;;27.25;43.78;99917.38;2070125;28;19913;-64
2022/07/24 01:15:32;;;;;;;;;;;;;;;27.25;43.62;99911.84;2070617;28;19913;-64
2022/07/24 01:16:33;;;;;;;;;;;;;;;27.23;43.59;99913.97;2069266;28;21116;-64
2022/07/24 01:17:35;;;;;;;;;;;;;;;27.24;43.53;99921.22;2066101;28;20789;-64
2022/07/24 01:18:35;;;;;;;;;;;;;;;27.24;43.56;99915.69;2070136;28;20508;-64
2022/07/24 01:19:36;;;;;;;;;;;;;;;27.24;43.78;99914.81;2069534;28;20775;-64
2022/07/24 01:20:37;;;;;;;;;;;;;;;27.24;43.58;99914.81;2070718;28;19925;-64
2022/07/24 01:21:37;;;;;;;;;;;;;;;27.24;43.69;99917.59;2069277;28;19923;-64
2022/07/24 01:22:38;;;;;;;;;;;;;;;27.24;43.79;99912.94;2068260;28;19944;-64
2022/07/24 01:23:38;;;;;;;;;;;;;;;27.25;43.83;99913.78;2066713;28;20606;-64
2022/07/24 01:24:38;;;;;;;;;;;;;;;27.24;43.72;99914.81;2067067;28;19944;-64
2022/07/24 01:25:39;;;;;;;;;;;;;;;27.25;43.63;99917.38;2069983;28;19929;-64
2022/07/24 01:26:39;;;;;;;;;;;;;;;27.25;43.75;99916.53;2064852;28;19972;-64
2022/07/24 01:27:39;;;;;;;;;;;;;;;27.23;43.72;99913.97;2068474;28;20044;-64
2022/07/24 01:28:40;;;;;;;;;;;;;;;27.24;43.72;99915.69;2065105;28;20431;-64
2022/07/24 01:29:40;;;;;;;;;;;;;;;27.22;43.58;99912.28;2067496;28;20378;-64
2022/07/24 01:30:40;;;;;;;;;;;;;;;27.23;43.85;99911.19;2067397;28;20432;-64
2022/07/24 01:31:41;;;;;;;;;;;;;;;27.23;43.74;99905.66;2069213;28;19913;-64
2022/07/24 01:32:41;;;;;;;;;;;;;;;27.22;43.87;99912.28;2065398;28;20078;-64
2022/07/24 01:33:41;;;;;;;;;;;;;;;27.23;43.52;99918.66;2065793;28;19913;-64
2022/07/24 01:34:42;;;;;;;;;;;;;;;27.22;43.54;99912.28;2068060;28;19921;-64
2022/07/24 01:35:42;;;;;;;;;;;;;;;27.22;43.77;99917.81;2070211;28;19921;-64
2022/07/24 01:36:43;;;;;;;;;;;;;;;27.22;43.50;99911.41;2068874;28;19917;-64
2022/07/24 01:37:43;;;;;;;;;;;;;;;27.23;43.87;99916.72;2069894;28;19925;-64
2022/07/24 01:38:44;;;;;;;;;;;;;;;27.21;43.84;99916.09;2067006;28;19913;-64
2022/07/24 01:39:44;;;;;;;;;;;;;;;27.22;43.73;99909.50;2070110;28;19931;-64
2022/07/24 01:40:44;;;;;;;;;;;;;;;27.22;43.64;99906.75;2068629;28;19913;-64
2022/07/24 01:41:45;;;;;;;;;;;;;;;27.23;43.76;99913.97;2067551;28;19917;-64
2022/07/24 01:42:45;;;;;;;;;;;;;;;27.21;43.79;99916.09;2071257;28;19956;-64
2022/07/24 01:43:45;;;;;;;;;;;;;;;27.21;43.75;99916.09;2067975;28;19917;-64
2022/07/24 01:44:46;;;;;;;;;;;;;;;27.23;43.81;99913.13;2069831;28;19933;-64
2022/07/24 01:45:46;;;;;;;;;;;;;;;27.22;43.73;99912.28;2069660;28;19915;-64
2022/07/24 01:46:46;;;;;;;;;;;;;;;27.22;43.55;99906.75;2066425;28;20004;-64
2022/07/24 01:47:47;;;;;;;;;;;;;;;27.22;43.78;99905.88;2062937;28;19993;-64
2022/07/24 01:48:47;;;;;;;;;;;;;;;27.22;43.79;99906.75;2068952;28;20339;-64
2022/07/24 01:49:47;;;;;;;;;;;;;;;27.22;43.74;99903.09;2067958;28;19906;-64
2022/07/24 01:50:48;;;;;;;;;;;;;;;27.21;43.73;99910.56;2071138;28;20384;-64
2022/07/24 01:51:48;;;;;;;;;;;;;;;27.21;43.78;99902.25;2069617;28;19924;-64
2022/07/24 01:52:48;;;;;;;;;;;;;;;27.21;43.49;99910.56;2068327;28;19909;-64
2022/07/24 01:53:49;;;;;;;;;;;;;;;27.21;43.54;99907.78;2069593;28;20920;-64
2022/07/24 01:54:49;;;;;;;;;;;;;;;27.21;43.52;99910.56;2068647;28;19915;-64
2022/07/24 01:55:50;;;;;;;;;;;;;;;27.22;43.78;99908.63;2070210;28;20067;-64
2022/07/24 01:56:50;;;;;;;;;;;;;;;27.21;43.88;99899.47;2064379;28;19910;-64
2022/07/24 01:57:51;;;;;;;;;;;;;;;27.21;43.67;99904.16;2064710;28;19921;-64
2022/07/24 01:58:51;;;;;;;;;;;;;;;27.20;43.96;99897.78;2068677;28;19959;-64
2022/07/24 01:59:51;;;;;;;;;;;;;;;27.21;43.88;99899.47;2067808;28;19920;-64
2022/07/24 02:00:52;;;;;;;;;;;;;;;27.21;43.67;99898.63;2076209;28;19905;-64
2022/07/24 02:01:52;;;;;;;;;;;;;;;27.20;43.86;99895.03;2070279;28;19921;-64
2022/07/24 02:02:52;;;;;;;;;;;;;;;27.21;43.88;99898.63;2075640;28;19948;-65
2022/07/24 02:03:53;;;;;;;;;;;;;;;27.20;43.67;99900.56;2064605;28;19917;-64
2022/07/24 02:04:53;;;;;;;;;;;;;;;27.20;43.76;99892.25;2067173;28;20059;-64
2022/07/24 02:05:53;;;;;;;;;;;;;;;27.20;43.72;99902.47;2070028;28;19913;-64
2022/07/24 02:06:54;;;;;;;;;;;;;;;27.19;43.73;99896.06;2069185;28;19917;-64
2022/07/24 02:07:58;;;;;;;;;;;;;;;27.19;43.92;99901.59;2068843;28;19909;-64
2022/07/24 02:08:59;;;;;;;;;;;;;;;27.20;43.73;99902.47;2068229;28;20422;-64
2022/07/24 02:09:59;;;;;;;;;;;;;;;27.19;43.88;99904.38;2066056;28;19982;-64
2022/07/24 02:10:59;;;;;;;;;;;;;;;27.19;43.79;99898.84;2064817;28;19978;-64
2022/07/24 02:12:00;;;;;;;;;;;;;;;27.19;43.74;99907.13;2066944;28;19913;-64
2022/07/24 02:13:00;;;;;;;;;;;;;;;27.19;43.86;99900.75;2071603;28;19917;-64
2022/07/24 02:14:00;;;;;;;;;;;;;;;27.19;43.72;99900.75;2067267;28;20016;-64
2022/07/24 02:15:01;;;;;;;;;;;;;;;27.18;43.62;99899.88;2069039;28;19923;-64
2022/07/24 02:16:02;;;;;;;;;;;;;;;27.18;43.87;99899.03;2069859;28;20408;-64
2022/07/24 02:17:02;;;;;;;;;;;;;;;27.18;43.91;99899.88;2076830;28;19901;-64
2022/07/24 02:18:03;;;;;;;;;;;;;;;27.17;43.65;99898.19;2069069;28;19921;-64
2022/07/24 02:19:03;;;;;;;;;;;;;;;27.18;43.79;99905.41;2064842;28;19917;-64
2022/07/24 02:20:05;;;;;;;;;;;;;;;27.18;43.63;99899.03;2071161;28;19911;-64
2022/07/24 02:21:05;;;;;;;;;;;;;;;27.18;43.67;99902.66;2069747;28;19920;-64
2022/07/24 02:22:05;;;;;;;;;;;;;;;27.17;43.60;99898.19;2069166;28;19909;-64
2022/07/24 02:23:05;;;;;;;;;;;;;;;27.17;43.69;99898.19;2072718;28;19919;-64
2022/07/24 02:24:06;;;;;;;;;;;;;;;27.17;43.86;99892.66;2067410;28;19952;-64
2022/07/24 02:25:06;;;;;;;;;;;;;;;27.17;43.74;99892.66;2069570;28;19916;-64
2022/07/24 02:26:07;;;;;;;;;;;;;;;27.17;43.88;99889.88;2070922;28;19917;-64
2022/07/24 02:27:07;;;;;;;;;;;;;;;27.17;43.67;99898.19;2069998;28;19905;-64
2022/07/24 02:28:07;;;;;;;;;;;;;;;27.17;43.87;99898.19;2070057;28;19917;-64
2022/07/24 02:29:08;;;;;;;;;;;;;;;27.18;43.74;99893.50;2069919;28;19911;-64
2022/07/24 02:30:10;;;;;;;;;;;;;;;27.18;43.84;99893.50;2074149;28;19913;-64
2022/07/24 02:31:11;;;;;;;;;;;;;;;27.16;43.69;99885.41;2072968;28;20345;-64
2022/07/24 02:32:11;;;;;;;;;;;;;;;27.17;43.89;99884.34;2071088;28;19913;-64
2022/07/24 02:33:11;;;;;;;;;;;;;;;27.18;43.91;99887.97;2061851;28;19921;-64
2022/07/24 02:34:12;;;;;;;;;;;;;;;27.16;43.74;99880.72;2070611;28;19916;-64
2022/07/24 02:35:12;;;;;;;;;;;;;;;27.17;43.74;99884.34;2075249;28;19948;-64
2022/07/24 02:36:12;;;;;;;;;;;;;;;27.16;43.82;99883.47;2075455;28;19924;-64
2022/07/24 02:37:13;;;;;;;;;;;;;;;27.17;43.91;99887.13;2071910;28;19940;-64
2022/07/24 02:38:13;;;;;;;;;;;;;;;27.16;43.67;99877.09;2062002;28;19964;-64
2022/07/24 02:39:13;;;;;;;;;;;;;;;27.16;43.94;99886.25;2067191;28;20736;-64
2022/07/24 02:40:14;;;;;;;;;;;;;;;27.16;43.70;99874.31;2069601;28;19909;-64
2022/07/24 02:41:15;;;;;;;;;;;;;;;27.17;43.65;99876.06;2076318;28;20409;-64
2022/07/24 02:42:15;;;;;;;;;;;;;;;27.16;43.68;99874.31;2072374;28;20331;-64
2022/07/24 02:43:15;;;;;;;;;;;;;;;27.16;43.68;99885.41;2078646;28;20873;-64
2022/07/24 02:44:16;;;;;;;;;;;;;;;27.17;43.67;99878.81;2069574;28;20119;-64
2022/07/24 02:45:17;;;;;;;;;;;;;;;27.16;43.73;99877.09;2069715;28;19996;-64
2022/07/24 02:46:17;;;;;;;;;;;;;;;27.17;43.70;99881.59;2069064;28;19913;-64
2022/07/24 02:47:18;;;;;;;;;;;;;;;27.16;43.89;99883.47;2067212;28;19999;-64
2022/07/24 02:48:18;;;;;;;;;;;;;;;27.16;43.92;99879.84;2066365;28;19940;-64
2022/07/24 02:49:18;;;;;;;;;;;;;;;27.16;44.00;99874.31;2065194;28;19953;-64
2022/07/24 02:50:19;;;;;;;;;;;;;;;27.14;43.99;99873.69;2070021;28;19909;-64
2022/07/24 02:51:20;;;;;;;;;;;;;;;27.15;43.95;99883.69;2075115;28;20923;-64
2022/07/24 02:52:20;;;;;;;;;;;;;;;27.15;44.03;99878.16;2073231;28;20520;-64
2022/07/24 02:53:20;;;;;;;;;;;;;;;27.14;43.75;99879.22;2070888;28;19918;-64
2022/07/24 02:54:20;;;;;;;;;;;;;;;27.13;43.85;99880.28;2069741;28;20663;-64
2022/07/24 02:55:21;;;;;;;;;;;;;;;27.14;44.05;99881.97;2065257;28;20429;-64
2022/07/24 02:56:21;;;;;;;;;;;;;;;27.12;43.88;99870.25;2074649;28;20447;-64
2022/07/24 02:57:21;;;;;;;;;;;;;;;27.13;44.01;99874.75;2071360;28;19974;-64
2022/07/24 02:58:22;;;;;;;;;;;;;;;27.14;44.01;99876.44;2069320;28;19920;-64
2022/07/24 02:59:22;;;;;;;;;;;;;;;27.13;43.85;99869.22;2062633;28;19921;-64
2022/07/24 03:00:23;;;;;;;;;;;;;;;27.12;43.65;99878.56;2072778;28;19952;-64
2022/07/24 03:01:23;;;;;;;;;;;;;;;27.13;43.68;99871.97;2071912;28;19921;-64
2022/07/24 03:02:23;;;;;;;;;;;;;;;27.12;43.69;99878.56;2066164;28;19917;-64
2022/07/24 03:03:24;;;;;;;;;;;;;;;27.12;43.79;99879.44;2068956;28;19921;-64
2022/07/24 03:04:24;;;;;;;;;;;;;;;27.13;43.87;99888.59;2069009;28;19925;-64
2022/07/24 03:05:25;;;;;;;;;;;;;;;27.12;43.75;99879.44;2067044;28;19991;-64
2022/07/24 03:06:25;;;;;;;;;;;;;;;27.12;43.84;99873.91;2067962;28;19959;-64
2022/07/24 03:07:25;;;;;;;;;;;;;;;27.11;43.88;99866.66;2068974;28;19978;-64
2022/07/24 03:08:25;;;;;;;;;;;;;;;27.11;43.67;99865.81;2069096;28;19921;-64
2022/07/24 03:09:26;;;;;;;;;;;;;;;27.12;44.00;99875.78;2069232;28;19962;-64
2022/07/24 03:10:26;;;;;;;;;;;;;;;27.13;43.87;99874.75;2064161;28;20032;-64
2022/07/24 03:11:26;;;;;;;;;;;;;;;27.12;43.75;99870.25;2068379;28;19955;-64
2022/07/24 03:12:27;;;;;;;;;;;;;;;27.13;43.97;99869.22;2065502;28;19918;-64
2022/07/24 03:13:27;;;;;;;;;;;;;;;27.13;43.99;99871.97;2069329;28;20003;-64
2022/07/24 03:14:27;;;;;;;;;;;;;;;27.13;43.92;99874.75;2067940;28;19920;-64
2022/07/24 03:15:27;;;;;;;;;;;;;;;27.12;43.64;99870.25;2069851;28;19920;-64
2022/07/24 03:16:28;;;;;;;;;;;;;;;27.12;44.03;99868.38;2068841;28;20388;-64
2022/07/24 03:17:28;;;;;;;;;;;;;;;27.12;43.98;99873.91;2065276;28;19913;-64
2022/07/24 03:18:28;;;;;;;;;;;;;;;27.11;43.97;99866.66;2064233;28;19917;-64
2022/07/24 03:19:29;;;;;;;;;;;;;;;27.12;43.79;99873.03;2069576;28;20365;-64
2022/07/24 03:20:29;;;;;;;;;;;;;;;27.12;43.91;99873.91;2067700;28;19931;-64
2022/07/24 03:21:30;;;;;;;;;;;;;;;27.12;44.00;99870.25;2067667;28;19921;-64
2022/07/24 03:22:30;;;;;;;;;;;;;;;27.12;43.76;99873.03;2070752;28;19917;-64
2022/07/24 03:23:30;;;;;;;;;;;;;;;27.12;44.06;99867.50;2068349;28;19917;-64
2022/07/24 03:24:30;;;;;;;;;;;;;;;27.13;44.06;99869.22;2070426;28;19928;-64
2022/07/24 03:25:31;;;;;;;;;;;;;;;27.12;43.78;99861.97;2068250;28;19959;-64
2022/07/24 03:26:31;;;;;;;;;;;;;;;27.11;44.02;99866.66;2066699;28;20074;-64
2022/07/24 03:27:31;;;;;;;;;;;;;;;27.12;44.04;99861.97;2065332;28;19913;-64
2022/07/24 03:28:32;;;;;;;;;;;;;;;27.12;43.88;99870.25;2068808;28;20092;-64
2022/07/24 03:29:32;;;;;;;;;;;;;;;27.11;43.86;99863.88;2069989;28;20358;-64
2022/07/24 03:30:32;;;;;;;;;;;;;;;27.11;44.02;99863.03;2064977;28;19943;-64
2022/07/24 03:31:33;;;;;;;;;;;;;;;27.11;43.86;99860.28;2068678;28;20079;-64
2022/07/24 03:32:33;;;;;;;;;;;;;;;27.10;44.00;99866.88;2069572;28;19962;-64
2022/07/24 03:33:34;;;;;;;;;;;;;;;27.11;43.93;99860.28;2066400;28;19964;-64
2022/07/24 03:34:34;;;;;;;;;;;;;;;27.10;43.81;99858.56;2069281;28;20597;-64
2022/07/24 03:35:34;;;;;;;;;;;;;;;27.09;44.09;99863.22;2068351;28;20461;-64
2022/07/24 03:36:35;;;;;;;;;;;;;;;27.09;43.96;99860.47;2069625;28;20075;-64
2022/07/24 03:37:35;;;;;;;;;;;;;;;27.10;44.00;99858.56;2064031;28;19921;-64
2022/07/24 03:38:36;;;;;;;;;;;;;;;27.10;43.79;99862.19;2066932;28;19968;-64
2022/07/24 03:39:36;;;;;;;;;;;;;;;27.09;43.81;99857.69;2063650;28;19945;-64
2022/07/24 03:40:36;;;;;;;;;;;;;;;27.08;43.86;99858.78;2067617;28;19913;-64
2022/07/24 03:41:36;;;;;;;;;;;;;;;27.08;44.02;99861.53;2065874;28;19995;-64
2022/07/24 03:42:37;;;;;;;;;;;;;;;27.08;43.88;99857.94;2068886;28;19909;-64
2022/07/24 03:43:37;;;;;;;;;;;;;;;27.09;43.86;99856.84;2064470;28;19921;-64
2022/07/24 03:44:37;;;;;;;;;;;;;;;27.08;43.88;99861.53;2068807;28;19917;-64
2022/07/24 03:45:38;;;;;;;;;;;;;;;27.09;43.92;99862.38;2069065;28;20734;-64
2022/07/24 03:46:38;;;;;;;;;;;;;;;27.08;43.79;99863.47;2062470;28;20384;-64
2022/07/24 03:47:38;;;;;;;;;;;;;;;27.08;43.85;99863.47;2065775;28;19906;-64
2022/07/24 03:48:39;;;;;;;;;;;;;;;27.07;44.08;99859.84;2068653;28;19925;-64
2022/07/24 03:49:39;;;;;;;;;;;;;;;27.07;43.81;99859.84;2067039;28;19916;-64
2022/07/24 03:50:39;;;;;;;;;;;;;;;27.08;43.83;99863.47;2069213;28;19913;-64
2022/07/24 03:51:39;;;;;;;;;;;;;;;27.07;43.78;99854.31;2068193;28;19952;-64
2022/07/24 03:52:40;;;;;;;;;;;;;;;27.08;44.04;99855.16;2071530;28;20487;-64
2022/07/24 03:53:40;;;;;;;;;;;;;;;27.08;43.74;99856.00;2062105;28;20303;-65
2022/07/24 03:54:40;;;;;;;;;;;;;;;27.08;44.01;99858.78;2062323;28;20666;-64
2022/07/24 03:55:41;;;;;;;;;;;;;;;27.08;44.09;99860.69;2061607;28;19917;-65
2022/07/24 03:56:41;;;;;;;;;;;;;;;27.08;43.95;99860.69;2063149;28;20012;-64
2022/07/24 03:57:41;;;;;;;;;;;;;;;27.07;43.93;99856.19;2062124;28;19928;-64
2022/07/24 03:58:42;;;;;;;;;;;;;;;27.07;43.71;99859.84;2067695;28;19920;-64
2022/07/24 03:59:42;;;;;;;;;;;;;;;27.08;44.08;99860.69;2070536;28;19917;-64
2022/07/24 04:00:42;;;;;;;;;;;;;;;27.07;43.82;99858.97;2073118;28;20263;-64
2022/07/24 04:01:43;;;;;;;;;;;;;;;27.07;43.98;99854.31;2069852;28;19984;-64
2022/07/24 04:02:43;;;;;;;;;;;;;;;27.07;43.72;99856.19;2068062;28;19955;-64
2022/07/24 04:03:43;;;;;;;;;;;;;;;27.08;43.73;99857.94;2068381;28;19913;-64
2022/07/24 04:04:44;;;;;;;;;;;;;;;27.07;43.82;99858.97;2069513;28;20646;-64
2022/07/24 04:05:44;;;;;;;;;;;;;;;27.07;44.09;99859.84;2063851;28;19905;-64
2022/07/24 04:06:44;;;;;;;;;;;;;;;27.07;44.09;99861.72;2068410;28;20112;-64
2022/07/24 04:07:45;;;;;;;;;;;;;;;27.06;43.92;99862.81;2069490;28;20921;-64
2022/07/24 04:08:47;;;;;;;;;;;;;;;27.07;44.09;99856.19;2068474;28;19924;-64
2022/07/24 04:09:47;;;;;;;;;;;;;;;27.07;44.17;99858.97;2070784;28;19910;-64
2022/07/24 04:10:48;;;;;;;;;;;;;;;27.07;43.85;99861.72;2066163;28;20497;-64
2022/07/24 04:11:48;;;;;;;;;;;;;;;27.07;44.15;99864.50;2067961;28;19956;-64
2022/07/24 04:12:48;;;;;;;;;;;;;;;27.07;44.11;99862.63;2069444;28;20020;-64
2022/07/24 04:13:49;;;;;;;;;;;;;;;27.07;43.83;99853.44;2070319;28;20649;-64
2022/07/24 04:14:49;;;;;;;;;;;;;;;27.07;43.86;99861.72;2069616;28;19913;-64
2022/07/24 04:15:49;;;;;;;;;;;;;;;27.06;44.01;99866.41;2068565;28;19909;-64
2022/07/24 04:16:50;;;;;;;;;;;;;;;27.06;43.88;99851.75;2070043;28;20354;-64
2022/07/24 04:17:51;;;;;;;;;;;;;;;27.05;43.81;99861.13;2061260;28;19918;-64
2022/07/24 04:18:51;;;;;;;;;;;;;;;27.06;44.04;99862.81;2065532;28;19917;-64
2022/07/24 04:19:51;;;;;;;;;;;;;;;27.05;43.91;99861.13;2068778;28;21073;-64
2022/07/24 04:20:52;;;;;;;;;;;;;;;27.04;43.98;99864.94;2069742;28;19967;-64
2022/07/24 04:21:52;;;;;;;;;;;;;;;27.06;43.89;99868.34;2068508;28;19909;-64
2022/07/24 04:22:53;;;;;;;;;;;;;;;27.04;43.82;99860.25;2068912;28;20382;-64
2022/07/24 04:23:53;;;;;;;;;;;;;;;27.05;44.05;99867.50;2070610;28;19921;-64
2022/07/24 04:24:53;;;;;;;;;;;;;;;27.04;43.84;99859.41;2071522;28;20062;-64
2022/07/24 04:25:54;;;;;;;;;;;;;;;27.04;43.97;99859.41;2071696;28;20482;-64
2022/07/24 04:26:54;;;;;;;;;;;;;;;27.04;44.18;99862.16;2071802;28;19967;-64
2022/07/24 04:27:54;;;;;;;;;;;;;;;27.04;43.80;99859.41;2068567;28;19917;-64
2022/07/24 04:28:54;;;;;;;;;;;;;;;27.03;44.12;99857.69;2070036;28;19992;-64
2022/07/24 04:29:55;;;;;;;;;;;;;;;27.03;43.89;99857.69;2074528;28;19916;-64
2022/07/24 04:30:55;;;;;;;;;;;;;;;27.04;43.91;99864.94;2070963;28;19952;-64
2022/07/24 04:31:55;;;;;;;;;;;;;;;27.03;44.10;99861.31;2067043;28;19921;-64
2022/07/24 04:32:56;;;;;;;;;;;;;;;27.04;44.00;99853.84;2069433;28;19931;-64
2022/07/24 04:33:57;;;;;;;;;;;;;;;27.04;44.09;99859.41;2070416;28;19952;-64
2022/07/24 04:34:57;;;;;;;;;;;;;;;27.03;43.86;99864.06;2072500;28;20449;-64
2022/07/24 04:35:58;;;;;;;;;;;;;;;27.04;43.76;99864.94;2068708;28;19909;-64
2022/07/24 04:36:58;;;;;;;;;;;;;;;27.04;43.80;99870.47;2065629;28;19910;-64
2022/07/24 04:37:58;;;;;;;;;;;;;;;27.03;43.84;99858.53;2070714;28;19921;-64
2022/07/24 04:38:59;;;;;;;;;;;;;;;27.04;44.13;99864.94;2069052;28;19994;-64
2022/07/24 04:39:59;;;;;;;;;;;;;;;27.04;43.85;99859.41;2068260;28;19913;-64
2022/07/24 04:40:59;;;;;;;;;;;;;;;27.04;44.06;99853.84;2070070;28;19928;-64
2022/07/24 04:42:00;;;;;;;;;;;;;;;27.04;44.11;99859.41;2070722;28;20881;-64
2022/07/24 04:43:00;;;;;;;;;;;;;;;27.02;43.90;99862.38;2073301;28;20619;-64
2022/07/24 04:44:00;;;;;;;;;;;;;;;27.03;44.12;99866.84;2071368;28;21648;-64
2022/07/24 04:45:01;;;;;;;;;;;;;;;27.03;44.17;99857.69;2071063;28;19964;-64
2022/07/24 04:46:01;;;;;;;;;;;;;;;27.03;43.84;99866.00;2071701;28;19948;-64
2022/07/24 04:47:01;;;;;;;;;;;;;;;27.03;44.10;99858.53;2067083;28;19913;-64
2022/07/24 04:48:02;;;;;;;;;;;;;;;27.04;43.92;99864.94;2069828;28;19921;-64
2022/07/24 04:49:02;;;;;;;;;;;;;;;27.02;44.18;99861.50;2068145;28;19909;-64
2022/07/24 04:50:04;;;;;;;;;;;;;;;27.02;44.13;99867.91;2067442;28;19920;-64
2022/07/24 04:51:04;;;;;;;;;;;;;;;27.03;44.13;99861.31;2070330;28;20706;-64
2022/07/24 04:52:05;;;;;;;;;;;;;;;27.03;44.15;99868.75;2065453;28;20279;-64
2022/07/24 04:53:05;;;;;;;;;;;;;;;27.03;44.08;99868.75;2069762;28;20016;-64
2022/07/24 04:54:05;;;;;;;;;;;;;;;27.03;44.10;99866.00;2077467;28;20218;-64
2022/07/24 04:55:06;;;;;;;;;;;;;;;27.03;44.14;99871.53;2071811;28;19913;-64
2022/07/24 04:56:06;;;;;;;;;;;;;;;27.03;44.11;99868.75;2070130;28;19909;-64
2022/07/24 04:57:06;;;;;;;;;;;;;;;27.02;43.97;99867.03;2074128;28;19916;-64
2022/07/24 04:58:07;;;;;;;;;;;;;;;27.02;43.98;99867.03;2073253;28;20342;-64
2022/07/24 04:59:07;;;;;;;;;;;;;;;27.02;43.86;99869.81;2072467;28;19967;-64
2022/07/24 05:00:09;;;;;;;;;;;;;;;27.01;44.19;99866.19;2067880;28;19932;-64
2022/07/24 05:01:10;;;;;;;;;;;;;;;27.02;44.07;99864.28;2068181;28;19921;-64
2022/07/24 05:02:10;;;;;;;;;;;;;;;27.02;43.94;99867.03;2073181;28;20007;-64
2022/07/24 05:03:10;;;;;;;;;;;;;;;27.00;44.17;99863.63;2070330;28;19913;-64
2022/07/24 05:04:11;;;;;;;;;;;;;;;27.00;44.00;99866.38;2067901;28;19913;-64
2022/07/24 05:05:11;;;;;;;;;;;;;;;27.01;44.35;99868.13;2068346;28;20008;-64
2022/07/24 05:06:11;;;;;;;;;;;;;;;27.00;44.20;99870.03;2069152;28;20376;-64
2022/07/24 05:07:11;;;;;;;;;;;;;;;27.00;44.14;99871.94;2068460;28;19917;-64
2022/07/24 05:08:12;;;;;;;;;;;;;;;27.00;43.95;99869.16;2070062;28;19917;-64
2022/07/24 05:09:13;;;;;;;;;;;;;;;26.99;44.09;99867.47;2068998;28;20021;-64
2022/07/24 05:10:13;;;;;;;;;;;;;;;26.99;43.98;99868.31;2067213;28;19920;-64
2022/07/24 05:11:13;;;;;;;;;;;;;;;26.99;44.22;99870.22;2070129;28;19913;-64
2022/07/24 05:12:14;;;;;;;;;;;;;;;26.99;44.16;99861.94;2070654;28;19913;-64
2022/07/24 05:13:15;;;;;;;;;;;;;;;26.99;44.05;99861.94;2071540;28;19913;-64
2022/07/24 05:14:15;;;;;;;;;;;;;;;26.99;44.09;99861.94;2067329;28;19917;-64
2022/07/24 05:15:16;;;;;;;;;;;;;;;26.99;43.98;99873.84;2063182;28;19917;-64